sensor_id;sensor_type;location;lat;lon;timestamp;pressure;altitude;pressure_sealevel;temperature;humidity
48041;BME280;33815;48.386;11.738;2022-10-26T00:00:44;96722.06;;;6.95;100.00
48041;BME280;33815;48.386;11.738;2022-10-26T00:03:09;96701.47;;;6.94;100.00
48041;BME280;33815;48.386;11.738;2022-10-26T00:05:34;96700.16;;;6.99;100.00
48041;BME280;33815;48.386;11.738;2022-10-26T00:08:00;96683.78;;;6.99;100.00
48041;BME280;33815;48.386;11.738;2022-10-26T00:10:26;96698.41;;;7.00;100.00
48041;BME280;33815;48.386;11.738;2022-10-26T00:12:51;96710.47;;;7.11;100.00
48041;BME280;33815;48.386;11.738;2022-10-26T00:15:18;96693.25;;;7.10;100.00
48041;BME280;33815;48.386;11.738;2022-10-26T00:17:44;96702.75;;;7.20;100.00
48041;BME280;33815;48.386;11.738;2022-10-26T00:20:10;96701.81;;;7.22;100.00
48041;BME280;33815;48.386;11.738;2022-10-26T00:22:36;96698.28;;;7.23;100.00
48041;BME280;33815;48.386;11.738;2022-10-26T00:25:01;96707.88;;;7.32;100.00
48041;BME280;33815;48.386;11.738;2022-10-26T00:27:27;96715.84;;;7.40;100.00
48041;BME280;33815;48.386;11.738;2022-10-26T00:29:52;96717.13;;;7.46;100.00
48041;BME280;33815;48.386;11.738;2022-10-26T00:32:17;96720.03;;;7.52;100.00
48041;BME280;33815;48.386;11.738;2022-10-26T00:34:42;96696.75;;;7.41;100.00
48041;BME280;33815;48.386;11.738;2022-10-26T00:37:08;96677.00;;;7.50;100.00
48041;BME280;33815;48.386;11.738;2022-10-26T00:39:33;96672.53;;;7.52;100.00
48041;BME280;33815;48.386;11.738;2022-10-26T00:41:59;96692.50;;;7.61;100.00
48041;BME280;33815;48.386;11.738;2022-10-26T00:47:41;96694.47;;;7.69;100.00
48041;BME280;33815;48.386;11.738;2022-10-26T00:50:19;96698.81;;;7.68;100.00
48041;BME280;33815;48.386;11.738;2022-10-26T00:52:47;96683.25;;;7.68;100.00
48041;BME280;33815;48.386;11.738;2022-10-26T00:55:13;96683.28;;;7.78;100.00
48041;BME280;33815;48.386;11.738;2022-10-26T00:57:39;96684.13;;;7.79;100.00
48041;BME280;33815;48.386;11.738;2022-10-26T01:00:06;96688.38;;;7.89;100.00
48041;BME280;33815;48.386;11.738;2022-10-26T01:02:32;96680.50;;;7.91;100.00
48041;BME280;33815;48.386;11.738;2022-10-26T01:04:58;96659.97;;;7.88;100.00
48041;BME280;33815;48.386;11.738;2022-10-26T01:07:24;96666.16;;;7.97;100.00
48041;BME280;33815;48.386;11.738;2022-10-26T01:09:50;96658.41;;;8.06;100.00
48041;BME280;33815;48.386;11.738;2022-10-26T01:12:16;96630.66;;;8.07;100.00
48041;BME280;33815;48.386;11.738;2022-10-26T01:14:41;96636.41;;;8.11;100.00
48041;BME280;33815;48.386;11.738;2022-10-26T01:19:59;96646.81;;;8.30;100.00
48041;BME280;33815;48.386;11.738;2022-10-26T01:31:17;96658.19;;;8.29;100.00
48041;BME280;33815;48.386;11.738;2022-10-26T01:33:49;96680.19;;;8.35;100.00
48041;BME280;33815;48.386;11.738;2022-10-26T01:38:58;96690.84;;;8.32;100.00
48041;BME280;33815;48.386;11.738;2022-10-26T01:41:32;96667.34;;;8.33;100.00
48041;BME280;33815;48.386;11.738;2022-10-26T01:44:03;96675.88;;;8.55;100.00
48041;BME280;33815;48.386;11.738;2022-10-26T01:46:35;96681.34;;;8.52;100.00
48041;BME280;33815;48.386;11.738;2022-10-26T01:49:06;96690.91;;;8.51;100.00
48041;BME280;33815;48.386;11.738;2022-10-26T01:51:33;96670.63;;;8.35;100.00
48041;BME280;33815;48.386;11.738;2022-10-26T01:53:59;96681.16;;;8.44;100.00
48041;BME280;33815;48.386;11.738;2022-10-26T01:56:26;96671.63;;;8.54;100.00
48041;BME280;33815;48.386;11.738;2022-10-26T02:01:50;96667.25;;;8.45;
48041;BME280;33815;48.386;11.738;2022-10-26T02:07:29;96663.53;;;8.37;100.00
48041;BME280;33815;48.386;11.738;2022-10-26T02:16:14;96666.72;;;8.51;100.00
48041;BME280;33815;48.386;11.738;2022-10-26T02:18:46;96675.06;;;8.45;100.00
48041;BME280;33815;48.386;11.738;2022-10-26T02:21:17;96660.94;;;8.37;100.00
48041;BME280;33815;48.386;11.738;2022-10-26T02:23:46;96664.19;;;8.30;100.00
48041;BME280;33815;48.386;11.738;2022-10-26T02:26:15;96667.31;;;8.23;100.00
48041;BME280;33815;48.386;11.738;2022-10-26T02:28:46;96664.38;;;8.48;100.00
48041;BME280;33815;48.386;11.738;2022-10-26T02:31:13;96663.53;;;8.37;100.00
48041;BME280;33815;48.386;11.738;2022-10-26T02:33:44;96677.44;;;8.27;100.00
48041;BME280;33815;48.386;11.738;2022-10-26T02:36:13;96681.41;;;8.31;100.00
48041;BME280;33815;48.386;11.738;2022-10-26T02:38:41;96670.44;;;8.17;100.00
48041;BME280;33815;48.386;11.738;2022-10-26T02:41:09;96662.25;;;8.12;100.00
48041;BME280;33815;48.386;11.738;2022-10-26T02:43:41;96673.75;;;8.19;100.00
48041;BME280;33815;48.386;11.738;2022-10-26T02:46:12;96664.47;;;8.27;100.00
48041;BME280;33815;48.386;11.738;2022-10-26T02:48:39;96645.03;;;8.21;100.00
48041;BME280;33815;48.386;11.738;2022-10-26T02:54:29;96667.88;;;8.27;100.00
48041;BME280;33815;48.386;11.738;2022-10-26T02:57:14;96662.16;;;8.33;100.00
48041;BME280;33815;48.386;11.738;2022-10-26T02:59:43;96655.16;;;8.24;100.00
48041;BME280;33815;48.386;11.738;2022-10-26T03:02:13;96653.00;;;8.29;100.00
48041;BME280;33815;48.386;11.738;2022-10-26T03:04:38;96654.88;;;8.27;100.00
48041;BME280;33815;48.386;11.738;2022-10-26T03:07:04;96661.84;;;8.17;100.00
48041;BME280;33815;48.386;11.738;2022-10-26T03:09:29;96664.03;;;8.21;100.00
48041;BME280;33815;48.386;11.738;2022-10-26T03:11:55;96663.50;;;8.18;100.00
48041;BME280;33815;48.386;11.738;2022-10-26T03:14:20;96663.34;;;8.19;100.00
48041;BME280;33815;48.386;11.738;2022-10-26T03:16:45;96668.28;;;8.32;100.00
48041;BME280;33815;48.386;11.738;2022-10-26T03:19:10;96662.94;;;8.24;100.00
48041;BME280;33815;48.386;11.738;2022-10-26T03:21:36;96669.09;;;8.33;100.00
48041;BME280;33815;48.386;11.738;2022-10-26T03:24:01;96659.00;;;8.39;100.00
48041;BME280;33815;48.386;11.738;2022-10-26T03:26:27;96676.25;;;8.40;100.00
48041;BME280;33815;48.386;11.738;2022-10-26T03:28:52;96666.22;;;8.26;100.00
48041;BME280;33815;48.386;11.738;2022-10-26T03:31:17;96668.81;;;8.26;100.00
48041;BME280;33815;48.386;11.738;2022-10-26T03:33:42;96673.75;;;8.29;100.00
48041;BME280;33815;48.386;11.738;2022-10-26T03:36:08;96647.91;;;8.18;100.00
48041;BME280;33815;48.386;11.738;2022-10-26T03:38:33;96665.97;;;8.29;100.00
48041;BME280;33815;48.386;11.738;2022-10-26T03:40:59;96651.78;;;8.33;100.00
48041;BME280;33815;48.386;11.738;2022-10-26T03:43:25;96631.50;;;8.27;100.00
48041;BME280;33815;48.386;11.738;2022-10-26T03:45:50;96630.72;;;8.36;100.00
48041;BME280;33815;48.386;11.738;2022-10-26T03:48:15;96646.31;;;8.36;100.00
48041;BME280;33815;48.386;11.738;2022-10-26T03:50:40;96615.53;;;8.12;100.00
48041;BME280;33815;48.386;11.738;2022-10-26T03:53:06;96646.16;;;8.38;100.00
48041;BME280;33815;48.386;11.738;2022-10-26T03:55:31;96649.31;;;8.32;100.00
48041;BME280;33815;48.386;11.738;2022-10-26T03:57:57;96645.03;;;8.21;100.00
48041;BME280;33815;48.386;11.738;2022-10-26T04:00:22;96646.94;;;8.19;100.00
48041;BME280;33815;48.386;11.738;2022-10-26T04:02:56;96649.53;;;8.19;100.00
48041;BME280;33815;48.386;11.738;2022-10-26T04:05:22;96653.63;;;8.21;100.00
48041;BME280;33815;48.386;11.738;2022-10-26T04:07:55;96670.72;;;8.24;100.00
48041;BME280;33815;48.386;11.738;2022-10-26T04:10:21;96675.13;;;8.23;100.00
48041;BME280;33815;48.386;11.738;2022-10-26T04:12:47;96670.16;;;8.20;100.00
48041;BME280;33815;48.386;11.738;2022-10-26T04:15:13;96666.91;;;8.18;100.00
48041;BME280;33815;48.386;11.738;2022-10-26T04:17:39;96664.88;;;8.22;100.00
48041;BME280;33815;48.386;11.738;2022-10-26T04:20:05;96667.59;;;8.30;100.00
48041;BME280;33815;48.386;11.738;2022-10-26T04:22:30;96669.38;;;8.30;100.00
48041;BME280;33815;48.386;11.738;2022-10-26T04:24:55;96679.50;;;8.33;100.00
48041;BME280;33815;48.386;11.738;2022-10-26T04:27:21;96689.50;;;8.37;100.00
48041;BME280;33815;48.386;11.738;2022-10-26T04:29:46;96679.91;;;8.28;100.00
48041;BME280;33815;48.386;11.738;2022-10-26T04:32:11;96678.84;;;8.40;100.00
48041;BME280;33815;48.386;11.738;2022-10-26T04:34:36;96666.19;;;8.47;100.00
48041;BME280;33815;48.386;11.738;2022-10-26T04:37:02;96678.31;;;8.47;100.00
48041;BME280;33815;48.386;11.738;2022-10-26T04:39:27;96683.34;;;8.38;100.00
48041;BME280;33815;48.386;11.738;2022-10-26T04:41:53;96692.78;;;8.39;100.00
48041;BME280;33815;48.386;11.738;2022-10-26T04:44:18;96696.19;;;8.40;100.00
48041;BME280;33815;48.386;11.738;2022-10-26T04:46:43;96684.41;;;8.36;100.00
48041;BME280;33815;48.386;11.738;2022-10-26T04:49:09;96667.22;;;8.35;100.00
48041;BME280;33815;48.386;11.738;2022-10-26T04:51:34;96671.16;;;8.29;100.00
48041;BME280;33815;48.386;11.738;2022-10-26T04:53:59;96667.34;;;8.33;100.00
48041;BME280;33815;48.386;11.738;2022-10-26T04:56:25;96663.50;;;8.28;100.00
48041;BME280;33815;48.386;11.738;2022-10-26T04:58:53;96684.56;;;8.34;100.00
48041;BME280;33815;48.386;11.738;2022-10-26T05:01:19;96696.16;;;8.30;100.00
48041;BME280;33815;48.386;11.738;2022-10-26T05:03:48;96688.25;;;8.32;100.00
48041;BME280;33815;48.386;11.738;2022-10-26T05:06:13;96671.69;;;8.23;100.00
48041;BME280;33815;48.386;11.738;2022-10-26T05:08:38;96679.34;;;8.24;100.00
48041;BME280;33815;48.386;11.738;2022-10-26T05:11:04;96696.72;;;8.34;100.00
48041;BME280;33815;48.386;11.738;2022-10-26T05:13:29;96680.44;;;8.22;100.00
48041;BME280;33815;48.386;11.738;2022-10-26T05:15:54;96712.44;;;8.32;100.00
48041;BME280;33815;48.386;11.738;2022-10-26T05:18:20;96744.16;;;8.36;100.00
48041;BME280;33815;48.386;11.738;2022-10-26T05:20:45;96782.34;;;8.45;100.00
48041;BME280;33815;48.386;11.738;2022-10-26T05:23:13;96820.50;;;8.45;100.00
48041;BME280;33815;48.386;11.738;2022-10-26T05:25:42;96820.09;;;8.49;100.00
48041;BME280;33815;48.386;11.738;2022-10-26T05:28:09;96843.78;;;8.56;100.00
48041;BME280;33815;48.386;11.738;2022-10-26T05:30:39;96815.41;;;8.43;100.00
48041;BME280;33815;48.386;11.738;2022-10-26T05:33:04;96818.34;;;8.60;100.00
48041;BME280;33815;48.386;11.738;2022-10-26T05:35:32;96824.28;;;8.71;100.00
48041;BME280;33815;48.386;11.738;2022-10-26T05:37:57;96800.28;;;8.48;100.00
48041;BME280;33815;48.386;11.738;2022-10-26T05:40:23;96821.50;;;8.53;100.00
48041;BME280;33815;48.386;11.738;2022-10-26T05:42:49;96819.84;;;8.52;100.00
48041;BME280;33815;48.386;11.738;2022-10-26T05:45:18;96805.41;;;8.38;100.00
48041;BME280;33815;48.386;11.738;2022-10-26T05:47:44;96823.78;;;8.47;100.00
48041;BME280;33815;48.386;11.738;2022-10-26T05:50:10;96824.91;;;8.54;100.00
48041;BME280;33815;48.386;11.738;2022-10-26T05:52:39;96832.31;;;8.59;100.00
48041;BME280;33815;48.386;11.738;2022-10-26T05:55:09;96830.94;;;8.54;100.00
48041;BME280;33815;48.386;11.738;2022-10-26T05:57:35;96817.09;;;8.54;100.00
48041;BME280;33815;48.386;11.738;2022-10-26T06:00:05;96818.34;;;8.60;100.00
48041;BME280;33815;48.386;11.738;2022-10-26T06:02:38;96821.34;;;8.55;100.00
48041;BME280;33815;48.386;11.738;2022-10-26T06:05:07;96841.19;;;8.56;100.00
48041;BME280;33815;48.386;11.738;2022-10-26T06:07:35;96821.09;;;8.58;100.00
48041;BME280;33815;48.386;11.738;2022-10-26T06:10:01;96803.56;;;8.50;100.00
48041;BME280;33815;48.386;11.738;2022-10-26T06:12:27;96826.59;;;8.65;100.00
48041;BME280;33815;48.386;11.738;2022-10-26T06:14:52;96814.94;;;8.59;100.00
48041;BME280;33815;48.386;11.738;2022-10-26T06:17:57;96800.91;;;8.71;100.00
48041;BME280;33815;48.386;11.738;2022-10-26T06:20:29;96804.16;;;8.64;100.00
48041;BME280;33815;48.386;11.738;2022-10-26T06:23:35;96816.22;;;8.74;100.00
48041;BME280;33815;48.386;11.738;2022-10-26T06:26:12;96811.94;;;8.64;100.00
48041;BME280;33815;48.386;11.738;2022-10-26T06:29:21;96800.28;;;8.48;100.00
48041;BME280;33815;48.386;11.738;2022-10-26T06:31:44;96836.34;;;8.72;100.00
48041;BME280;33815;48.386;11.738;2022-10-26T06:34:12;96821.13;;;8.68;100.00
48041;BME280;33815;48.386;11.738;2022-10-26T06:36:40;96817.88;;;8.76;100.00
48041;BME280;33815;48.386;11.738;2022-10-26T06:39:08;96818.53;;;8.78;100.00
48041;BME280;33815;48.386;11.738;2022-10-26T06:41:35;96833.75;;;8.92;100.00
48041;BME280;33815;48.386;11.738;2022-10-26T06:44:02;96834.75;;;9.01;100.00
48041;BME280;33815;48.386;11.738;2022-10-26T06:49:36;96832.72;;;9.14;100.00
48041;BME280;33815;48.386;11.738;2022-10-26T06:52:11;96810.53;;;9.10;100.00
48041;BME280;33815;48.386;11.738;2022-10-26T06:54:55;96822.59;;;9.21;100.00
48041;BME280;33815;48.386;11.738;2022-10-26T06:57:22;96820.94;;;9.30;100.00
48041;BME280;33815;48.386;11.738;2022-10-26T07:02:18;96831.63;;;9.36;100.00
48041;BME280;33815;48.386;11.738;2022-10-26T07:04:43;96827.00;;;9.40;100.00
48041;BME280;33815;48.386;11.738;2022-10-26T07:07:12;96825.75;;;9.54;100.00
48041;BME280;33815;48.386;11.738;2022-10-26T07:09:38;96823.16;;;9.54;100.00
48041;BME280;33815;48.386;11.738;2022-10-26T07:12:04;96822.31;;;9.63;100.00
48041;BME280;33815;48.386;11.738;2022-10-26T07:14:29;96812.47;;;9.67;100.00
48041;BME280;33815;48.386;11.738;2022-10-26T07:16:54;96824.63;;;9.86;100.00
48041;BME280;33815;48.386;11.738;2022-10-26T07:19:21;96833.78;;;9.90;100.00
48041;BME280;33815;48.386;11.738;2022-10-26T07:21:46;96835.88;;;9.86;100.00
48041;BME280;33815;48.386;11.738;2022-10-26T07:24:11;96826.97;;;9.79;100.00
48041;BME280;33815;48.386;11.738;2022-10-26T07:26:37;96841.47;;;9.91;100.00
48041;BME280;33815;48.386;11.738;2022-10-26T07:29:02;96844.03;;;10.01;100.00
48041;BME280;33815;48.386;11.738;2022-10-26T07:31:27;96844.44;;;10.16;100.00
48041;BME280;33815;48.386;11.738;2022-10-26T07:33:53;96827.19;;;10.05;100.00
48041;BME280;33815;48.386;11.738;2022-10-26T07:36:18;96836.03;;;10.22;100.00
48041;BME280;33815;48.386;11.738;2022-10-26T07:38:44;96837.19;;;10.20;100.00
48041;BME280;33815;48.386;11.738;2022-10-26T07:41:09;96843.16;;;10.30;100.00
48041;BME280;33815;48.386;11.738;2022-10-26T07:43:34;96842.22;;;10.31;100.00
48041;BME280;33815;48.386;11.738;2022-10-26T07:46:00;96846.72;;;10.39;100.00
48041;BME280;33815;48.386;11.738;2022-10-26T07:48:25;96835.31;;;10.50;100.00
48041;BME280;33815;48.386;11.738;2022-10-26T07:50:50;96828.84;;;10.54;100.00
48041;BME280;33815;48.386;11.738;2022-10-26T07:53:16;96835.13;;;10.61;100.00
48041;BME280;33815;48.386;11.738;2022-10-26T07:55:41;96840.53;;;10.77;100.00
48041;BME280;33815;48.386;11.738;2022-10-26T07:58:06;96843.31;;;10.94;100.00
48041;BME280;33815;48.386;11.738;2022-10-26T08:00:31;96850.22;;;11.13;100.00
48041;BME280;33815;48.386;11.738;2022-10-26T08:02:57;96851.81;;;11.24;100.00
48041;BME280;33815;48.386;11.738;2022-10-26T08:05:22;96825.50;;;11.35;100.00
48041;BME280;33815;48.386;11.738;2022-10-26T08:07:47;96847.69;;;11.75;100.00
48041;BME280;33815;48.386;11.738;2022-10-26T08:10:13;96841.34;;;11.78;100.00
48041;BME280;33815;48.386;11.738;2022-10-26T08:12:40;96831.59;;;11.62;100.00
48041;BME280;33815;48.386;11.738;2022-10-26T08:15:05;96833.41;;;11.61;100.00
48041;BME280;33815;48.386;11.738;2022-10-26T08:17:31;96818.09;;;11.48;100.00
48041;BME280;33815;48.386;11.738;2022-10-26T08:19:57;96830.41;;;11.56;100.00
48041;BME280;33815;48.386;11.738;2022-10-26T08:22:22;96839.44;;;11.62;100.00
48041;BME280;33815;48.386;11.738;2022-10-26T08:24:47;96830.31;;;11.84;100.00
48041;BME280;33815;48.386;11.738;2022-10-26T08:27:13;96849.41;;;12.03;100.00
48041;BME280;33815;48.386;11.738;2022-10-26T08:29:39;96831.66;;;12.14;100.00
48041;BME280;33815;48.386;11.738;2022-10-26T08:32:05;96848.16;;;12.41;100.00
48041;BME280;33815;48.386;11.738;2022-10-26T08:34:30;96845.25;;;12.44;100.00
48041;BME280;33815;48.386;11.738;2022-10-26T08:36:55;96837.91;;;12.48;100.00
48041;BME280;33815;48.386;11.738;2022-10-26T08:39:21;96840.03;;;12.44;100.00
48041;BME280;33815;48.386;11.738;2022-10-26T08:41:48;96841.16;;;12.42;100.00
48041;BME280;33815;48.386;11.738;2022-10-26T08:44:34;96831.56;;;12.50;100.00
48041;BME280;33815;48.386;11.738;2022-10-26T08:47:30;96847.97;;;12.69;100.00
48041;BME280;33815;48.386;11.738;2022-10-26T08:50:18;96851.66;;;12.93;100.00
48041;BME280;33815;48.386;11.738;2022-10-26T08:53:00;96854.63;;;12.98;100.00
48041;BME280;33815;48.386;11.738;2022-10-26T08:55:47;96851.25;;;13.22;100.00
48041;BME280;33815;48.386;11.738;2022-10-26T08:58:17;96856.25;;;13.50;100.00
48041;BME280;33815;48.386;11.738;2022-10-26T09:00:46;96837.09;;;13.66;100.00
48041;BME280;33815;48.386;11.738;2022-10-26T09:03:17;96857.09;;;14.00;100.00
48041;BME280;33815;48.386;11.738;2022-10-26T09:05:58;96861.00;;;14.04;100.00
48041;BME280;33815;48.386;11.738;2022-10-26T09:08:38;96856.53;;;14.46;100.00
48041;BME280;33815;48.386;11.738;2022-10-26T09:14:15;96859.19;;;15.25;100.00
48041;BME280;33815;48.386;11.738;2022-10-26T09:16:58;96839.31;;;15.31;100.00
48041;BME280;33815;48.386;11.738;2022-10-26T09:22:26;96863.44;;;15.57;100.00
48041;BME280;33815;48.386;11.738;2022-10-26T09:24:55;96856.13;;;15.68;100.00
48041;BME280;33815;48.386;11.738;2022-10-26T09:27:31;96862.31;;;15.75;100.00
48041;BME280;33815;48.386;11.738;2022-10-26T09:30:10;96859.47;;;15.85;100.00
48041;BME280;33815;48.386;11.738;2022-10-26T09:32:40;96856.22;;;15.83;100.00
48041;BME280;33815;48.386;11.738;2022-10-26T09:35:19;96862.75;;;15.87;100.00
48041;BME280;33815;48.386;11.738;2022-10-26T09:37:50;96868.63;;;15.66;100.00
48041;BME280;33815;48.386;11.738;2022-10-26T09:40:30;96867.75;;;15.50;100.00
48041;BME280;33815;48.386;11.738;2022-10-26T09:43:05;96851.59;;;15.30;100.00
48041;BME280;33815;48.386;11.738;2022-10-26T09:45:37;96863.34;;;15.19;100.00
48041;BME280;33815;48.386;11.738;2022-10-26T09:50:54;96874.81;;;15.18;100.00
48041;BME280;33815;48.386;11.738;2022-10-26T09:53:22;96863.34;;;15.19;100.00
48041;BME280;33815;48.386;11.738;2022-10-26T09:55:48;96871.84;;;15.21;100.00
48041;BME280;33815;48.386;11.738;2022-10-26T09:58:19;96872.81;;;15.20;100.00
48041;BME280;33815;48.386;11.738;2022-10-26T10:00:49;96878.94;;;15.13;100.00
48041;BME280;33815;48.386;11.738;2022-10-26T10:03:20;96881.59;;;15.04;100.00
48041;BME280;33815;48.386;11.738;2022-10-26T10:05:48;96875.94;;;14.93;100.00
48041;BME280;33815;48.386;11.738;2022-10-26T10:08:24;96883.31;;;14.89;100.00
48041;BME280;33815;48.386;11.738;2022-10-26T10:13:22;96893.03;;;14.80;100.00
48041;BME280;33815;48.386;11.738;2022-10-26T10:15:53;96896.47;;;14.72;100.00
48041;BME280;33815;48.386;11.738;2022-10-26T10:18:20;96887.47;;;14.67;100.00
48041;BME280;33815;48.386;11.738;2022-10-26T10:20:51;96890.56;;;14.79;100.00
48041;BME280;33815;48.386;11.738;2022-10-26T10:23:28;96889.25;;;14.83;100.00
48041;BME280;33815;48.386;11.738;2022-10-26T10:26:03;96903.63;;;14.95;100.00
48041;BME280;33815;48.386;11.738;2022-10-26T10:28:29;96896.22;;;14.99;100.00
48041;BME280;33815;48.386;11.738;2022-10-26T10:31:06;96897.53;;;15.03;100.00
48041;BME280;33815;48.386;11.738;2022-10-26T10:33:42;96893.75;;;15.05;100.00
48041;BME280;33815;48.386;11.738;2022-10-26T10:36:13;96897.63;;;15.18;100.00
48041;BME280;33815;48.386;11.738;2022-10-26T10:38:41;96897.13;;;15.22;100.00
48041;BME280;33815;48.386;11.738;2022-10-26T10:41:20;96896.16;;;15.47;100.00
48041;BME280;33815;48.386;11.738;2022-10-26T10:43:52;96908.53;;;15.61;100.00
48041;BME280;33815;48.386;11.738;2022-10-26T10:46:22;96899.44;;;15.72;100.00
48041;BME280;33815;48.386;11.738;2022-10-26T10:48:59;96893.50;;;15.78;100.00
48041;BME280;33815;48.386;11.738;2022-10-26T10:51:26;96907.63;;;15.85;100.00
48041;BME280;33815;48.386;11.738;2022-10-26T10:53:53;96911.81;;;15.95;100.00
48041;BME280;33815;48.386;11.738;2022-10-26T11:01:38;96920.84;;;16.53;100.00
48041;BME280;33815;48.386;11.738;2022-10-26T11:04:29;96923.03;;;16.65;98.01
48041;BME280;33815;48.386;11.738;2022-10-26T11:06:59;96895.34;;;16.69;98.42
48041;BME280;33815;48.386;11.738;2022-10-26T11:09:30;96916.84;;;16.87;98.01
48041;BME280;33815;48.386;11.738;2022-10-26T11:12:02;96921.81;;;16.90;94.04
48041;BME280;33815;48.386;11.738;2022-10-26T11:14:54;96904.91;;;16.85;92.63
48041;BME280;33815;48.386;11.738;2022-10-26T11:17:25;96923.91;;;16.95;94.96
48041;BME280;33815;48.386;11.738;2022-10-26T11:22:38;96927.44;;;17.02;89.82
48041;BME280;33815;48.386;11.738;2022-10-26T11:25:17;96925.56;;;16.73;88.20
48041;BME280;33815;48.386;11.738;2022-10-26T11:27:48;96914.03;;;16.59;89.41
48041;BME280;33815;48.386;11.738;2022-10-26T11:30:20;96924.13;;;16.70;90.06
48041;BME280;33815;48.386;11.738;2022-10-26T11:36:00;96929.56;;;16.69;91.84
48041;BME280;33815;48.386;11.738;2022-10-26T11:41:38;96921.19;;;16.50;90.76
48041;BME280;33815;48.386;11.738;2022-10-26T11:44:29;96936.38;;;16.48;95.06
48041;BME280;33815;48.386;11.738;2022-10-26T11:47:05;96929.41;;;16.32;93.78
48041;BME280;33815;48.386;11.738;2022-10-26T11:52:28;96939.13;;;16.32;94.57
48041;BME280;33815;48.386;11.738;2022-10-26T11:54:57;96947.53;;;16.27;94.67
48041;BME280;33815;48.386;11.738;2022-10-26T11:57:25;96941.47;;;16.26;96.30
48041;BME280;33815;48.386;11.738;2022-10-26T12:00:00;96947.81;;;16.32;97.88
48041;BME280;33815;48.386;11.738;2022-10-26T12:02:26;96949.59;;;16.40;93.79
48041;BME280;33815;48.386;11.738;2022-10-26T12:05:07;96953.88;;;16.56;93.91
48041;BME280;33815;48.386;11.738;2022-10-26T12:07:37;96940.63;;;16.64;95.65
48041;BME280;33815;48.386;11.738;2022-10-26T12:10:07;96953.72;;;16.87;91.36
48041;BME280;33815;48.386;11.738;2022-10-26T12:17:51;96939.94;;;17.45;88.22
48041;BME280;33815;48.386;11.738;2022-10-26T12:20:38;96951.50;;;17.66;87.10
48041;BME280;33815;48.386;11.738;2022-10-26T12:23:13;96952.25;;;17.96;87.27
48041;BME280;33815;48.386;11.738;2022-10-26T12:25:38;96961.44;;;17.85;86.24
48041;BME280;33815;48.386;11.738;2022-10-26T12:28:04;96963.19;;;17.93;85.12
48041;BME280;33815;48.386;11.738;2022-10-26T12:30:31;96964.19;;;17.77;86.42
48041;BME280;33815;48.386;11.738;2022-10-26T12:33:00;96960.78;;;17.61;88.26
48041;BME280;33815;48.386;11.738;2022-10-26T12:36:09;96963.78;;;17.58;88.09
48041;BME280;33815;48.386;11.738;2022-10-26T12:40:48;96957.19;;;17.33;88.74
48041;BME280;33815;48.386;11.738;2022-10-26T12:43:39;96975.31;;;17.57;87.83
48041;BME280;33815;48.386;11.738;2022-10-26T12:48:47;96961.25;;;17.50;88.49
48041;BME280;33815;48.386;11.738;2022-10-26T12:54:07;96980.69;;;17.49;88.51
48041;BME280;33815;48.386;11.738;2022-10-26T12:56:41;96981.91;;;17.46;88.28
48041;BME280;33815;48.386;11.738;2022-10-26T13:07:39;96983.38;;;17.86;90.51
48041;BME280;33815;48.386;11.738;2022-10-26T13:12:52;96983.09;;;18.17;89.44
48041;BME280;33815;48.386;11.738;2022-10-26T13:15:32;96988.56;;;18.65;87.21
48041;BME280;33815;48.386;11.738;2022-10-26T13:20:30;96979.50;;;19.03;81.30
48041;BME280;33815;48.386;11.738;2022-10-26T13:22:56;96974.88;;;18.77;84.21
48041;BME280;33815;48.386;11.738;2022-10-26T13:25:27;96986.19;;;18.71;82.41
48041;BME280;33815;48.386;11.738;2022-10-26T13:28:02;96978.31;;;18.49;84.89
48041;BME280;33815;48.386;11.738;2022-10-26T13:30:41;96980.13;;;18.27;84.39
48041;BME280;33815;48.386;11.738;2022-10-26T13:33:15;96983.44;;;17.92;86.76
48041;BME280;33815;48.386;11.738;2022-10-26T13:35:42;96994.25;;;17.83;87.62
48041;BME280;33815;48.386;11.738;2022-10-26T13:38:10;96999.59;;;17.68;89.51
48041;BME280;33815;48.386;11.738;2022-10-26T13:40:37;96995.31;;;17.67;89.76
48041;BME280;33815;48.386;11.738;2022-10-26T13:43:05;96994.31;;;17.68;89.95
48041;BME280;33815;48.386;11.738;2022-10-26T13:45:48;96996.38;;;17.72;89.72
48041;BME280;33815;48.386;11.738;2022-10-26T13:48:22;96984.09;;;17.79;88.69
48041;BME280;33815;48.386;11.738;2022-10-26T13:50:58;96993.06;;;17.85;88.63
48041;BME280;33815;48.386;11.738;2022-10-26T13:53:36;96995.25;;;17.96;90.41
48041;BME280;33815;48.386;11.738;2022-10-26T13:56:16;96996.47;;;18.15;87.10
48041;BME280;33815;48.386;11.738;2022-10-26T13:58:48;97002.66;;;18.08;87.62
48041;BME280;33815;48.386;11.738;2022-10-26T14:01:16;96992.50;;;18.05;88.43
48041;BME280;33815;48.386;11.738;2022-10-26T14:03:42;97008.13;;;18.06;87.20
48041;BME280;33815;48.386;11.738;2022-10-26T14:08:43;96999.63;;;17.89;88.70
48041;BME280;33815;48.386;11.738;2022-10-26T14:11:13;97000.78;;;17.87;87.69
48041;BME280;33815;48.386;11.738;2022-10-26T14:13:39;97005.38;;;17.93;87.50
48041;BME280;33815;48.386;11.738;2022-10-26T14:16:09;96997.97;;;17.88;87.57
48041;BME280;33815;48.386;11.738;2022-10-26T14:18:35;97000.59;;;17.88;88.38
48041;BME280;33815;48.386;11.738;2022-10-26T14:21:21;97009.72;;;17.86;89.06
48041;BME280;33815;48.386;11.738;2022-10-26T14:23:59;97019.81;;;17.82;89.31
48041;BME280;33815;48.386;11.738;2022-10-26T14:26:29;97013.75;;;17.67;90.83
48041;BME280;33815;48.386;11.738;2022-10-26T14:28:57;97026.41;;;17.56;91.86
48041;BME280;33815;48.386;11.738;2022-10-26T14:31:29;97020.06;;;17.51;93.12
48041;BME280;33815;48.386;11.738;2022-10-26T14:33:56;97009.34;;;17.37;90.93
48041;BME280;33815;48.386;11.738;2022-10-26T14:36:30;97021.22;;;17.33;91.02